sensor_id;sensor_type;location;lat;lon;timestamp;temperature;humidity
57566;DHT22;63999;43.882;-0.310;2023-10-13T00:02:00;21.00;63.00
57566;DHT22;63999;43.882;-0.310;2023-10-13T00:04:30;21.00;63.10
57566;DHT22;63999;43.882;-0.310;2023-10-13T00:06:58;21.00;63.20
57566;DHT22;63999;43.882;-0.310;2023-10-13T00:09:25;20.90;63.00
57566;DHT22;63999;43.882;-0.310;2023-10-13T00:11:58;20.90;62.90
57566;DHT22;63999;43.882;-0.310;2023-10-13T00:14:24;20.90;63.00
57566;DHT22;63999;43.882;-0.310;2023-10-13T00:17:01;20.80;62.70
57566;DHT22;63999;43.882;-0.310;2023-10-13T00:19:35;20.80;62.90
57566;DHT22;63999;43.882;-0.310;2023-10-13T00:22:08;20.80;62.90
57566;DHT22;63999;43.882;-0.310;2023-10-13T00:24:38;20.80;63.00
57566;DHT22;63999;43.882;-0.310;2023-10-13T00:27:27;20.80;62.90
57566;DHT22;63999;43.882;-0.310;2023-10-13T00:29:53;20.80;63.00
57566;DHT22;63999;43.882;-0.310;2023-10-13T00:32:30;20.80;62.90
57566;DHT22;63999;43.882;-0.310;2023-10-13T00:34:57;20.80;62.90
57566;DHT22;63999;43.882;-0.310;2023-10-13T00:37:23;20.80;62.80
57566;DHT22;63999;43.882;-0.310;2023-10-13T00:39:54;20.70;62.80
57566;DHT22;63999;43.882;-0.310;2023-10-13T00:42:26;20.70;62.80
57566;DHT22;63999;43.882;-0.310;2023-10-13T00:45:11;20.70;62.80
57566;DHT22;63999;43.882;-0.310;2023-10-13T00:47:42;20.70;62.70
57566;DHT22;63999;43.882;-0.310;2023-10-13T00:50:22;20.70;62.70
57566;DHT22;63999;43.882;-0.310;2023-10-13T00:52:50;20.70;62.60
57566;DHT22;63999;43.882;-0.310;2023-10-13T00:55:19;20.60;62.60
57566;DHT22;63999;43.882;-0.310;2023-10-13T00:57:51;20.60;62.50
57566;DHT22;63999;43.882;-0.310;2023-10-13T01:00:19;20.50;62.40
57566;DHT22;63999;43.882;-0.310;2023-10-13T01:02:49;20.50;62.40
57566;DHT22;63999;43.882;-0.310;2023-10-13T01:05:23;20.50;62.40
57566;DHT22;63999;43.882;-0.310;2023-10-13T01:07:49;20.50;62.40
57566;DHT22;63999;43.882;-0.310;2023-10-13T01:10:18;20.40;62.30
57566;DHT22;63999;43.882;-0.310;2023-10-13T01:12:46;20.30;62.50
57566;DHT22;63999;43.882;-0.310;2023-10-13T01:15:12;20.30;62.50
57566;DHT22;63999;43.882;-0.310;2023-10-13T01:17:42;20.30;62.40
57566;DHT22;63999;43.882;-0.310;2023-10-13T01:20:12;20.30;62.50
57566;DHT22;63999;43.882;-0.310;2023-10-13T01:22:46;20.30;62.40
57566;DHT22;63999;43.882;-0.310;2023-10-13T01:25:22;20.30;62.40
57566;DHT22;63999;43.882;-0.310;2023-10-13T01:27:51;20.30;62.40
57566;DHT22;63999;43.882;-0.310;2023-10-13T01:30:18;20.30;62.30
57566;DHT22;63999;43.882;-0.310;2023-10-13T01:32:49;20.20;62.20
57566;DHT22;63999;43.882;-0.310;2023-10-13T01:35:16;20.20;62.30
57566;DHT22;63999;43.882;-0.310;2023-10-13T01:37:45;20.10;62.20
57566;DHT22;63999;43.882;-0.310;2023-10-13T01:40:11;20.10;62.10
57566;DHT22;63999;43.882;-0.310;2023-10-13T01:42:39;20.10;62.20
57566;DHT22;63999;43.882;-0.310;2023-10-13T01:45:05;20.10;62.10
57566;DHT22;63999;43.882;-0.310;2023-10-13T01:47:32;20.00;62.00
57566;DHT22;63999;43.882;-0.310;2023-10-13T01:49:59;19.90;62.00
57566;DHT22;63999;43.882;-0.310;2023-10-13T01:52:32;19.90;62.00
57566;DHT22;63999;43.882;-0.310;2023-10-13T01:54:58;19.70;62.10
57566;DHT22;63999;43.882;-0.310;2023-10-13T01:57:27;19.70;62.20
57566;DHT22;63999;43.882;-0.310;2023-10-13T01:59:53;19.60;62.30
57566;DHT22;63999;43.882;-0.310;2023-10-13T02:02:22;19.60;62.50
57566;DHT22;63999;43.882;-0.310;2023-10-13T02:04:56;19.50;62.40
57566;DHT22;63999;43.882;-0.310;2023-10-13T02:07:25;19.50;62.50
57566;DHT22;63999;43.882;-0.310;2023-10-13T02:09:56;19.50;62.50
57566;DHT22;63999;43.882;-0.310;2023-10-13T02:12:21;19.50;62.50
57566;DHT22;63999;43.882;-0.310;2023-10-13T02:15:12;19.40;62.50
57566;DHT22;63999;43.882;-0.310;2023-10-13T02:17:52;19.40;62.50
57566;DHT22;63999;43.882;-0.310;2023-10-13T02:20:20;19.40;62.70
57566;DHT22;63999;43.882;-0.310;2023-10-13T02:22:51;19.40;62.60
57566;DHT22;63999;43.882;-0.310;2023-10-13T02:25:17;19.30;62.60
57566;DHT22;63999;43.882;-0.310;2023-10-13T02:28:00;19.30;62.50
57566;DHT22;63999;43.882;-0.310;2023-10-13T02:30:26;19.30;62.80
57566;DHT22;63999;43.882;-0.310;2023-10-13T02:32:55;19.30;62.60
57566;DHT22;63999;43.882;-0.310;2023-10-13T02:35:21;19.20;62.60
57566;DHT22;63999;43.882;-0.310;2023-10-13T02:37:56;19.20;62.50
57566;DHT22;63999;43.882;-0.310;2023-10-13T02:40:24;19.20;62.50
57566;DHT22;63999;43.882;-0.310;2023-10-13T02:42:50;19.10;62.60
57566;DHT22;63999;43.882;-0.310;2023-10-13T02:45:16;19.10;62.50
57566;DHT22;63999;43.882;-0.310;2023-10-13T02:47:43;19.10;62.60
57566;DHT22;63999;43.882;-0.310;2023-10-13T02:50:09;19.00;62.70
57566;DHT22;63999;43.882;-0.310;2023-10-13T02:52:38;19.00;62.70
57566;DHT22;63999;43.882;-0.310;2023-10-13T02:55:07;19.00;62.60
57566;DHT22;63999;43.882;-0.310;2023-10-13T02:57:39;19.00;62.80
57566;DHT22;63999;43.882;-0.310;2023-10-13T03:00:06;19.00;62.70
57566;DHT22;63999;43.882;-0.310;2023-10-13T03:02:40;19.00;62.70
57566;DHT22;63999;43.882;-0.310;2023-10-13T03:05:10;19.00;62.70
57566;DHT22;63999;43.882;-0.310;2023-10-13T03:07:39;19.00;62.70
57566;DHT22;63999;43.882;-0.310;2023-10-13T03:10:09;19.00;62.70
57566;DHT22;63999;43.882;-0.310;2023-10-13T03:12:39;19.00;62.60
57566;DHT22;63999;43.882;-0.310;2023-10-13T03:15:07;19.00;62.60
57566;DHT22;63999;43.882;-0.310;2023-10-13T03:17:36;19.00;62.80
57566;DHT22;63999;43.882;-0.310;2023-10-13T03:20:02;19.00;62.60
57566;DHT22;63999;43.882;-0.310;2023-10-13T03:22:31;19.00;62.50
57566;DHT22;63999;43.882;-0.310;2023-10-13T03:24:58;18.90;62.50
57566;DHT22;63999;43.882;-0.310;2023-10-13T03:27:34;18.90;62.50
57566;DHT22;63999;43.882;-0.310;2023-10-13T03:30:26;18.90;62.50
57566;DHT22;63999;43.882;-0.310;2023-10-13T03:33:03;18.80;62.60
57566;DHT22;63999;43.882;-0.310;2023-10-13T03:35:36;18.80;62.60
57566;DHT22;63999;43.882;-0.310;2023-10-13T03:38:08;18.80;62.50
57566;DHT22;63999;43.882;-0.310;2023-10-13T03:40:46;18.70;62.50
57566;DHT22;63999;43.882;-0.310;2023-10-13T03:43:15;18.70;62.60
57566;DHT22;63999;43.882;-0.310;2023-10-13T03:45:49;18.70;62.60
57566;DHT22;63999;43.882;-0.310;2023-10-13T03:48:25;18.70;62.60
57566;DHT22;63999;43.882;-0.310;2023-10-13T03:53:39;18.70;62.60
57566;DHT22;63999;43.882;-0.310;2023-10-13T03:56:21;18.70;62.70
57566;DHT22;63999;43.882;-0.310;2023-10-13T03:58:54;18.70;62.60
57566;DHT22;63999;43.882;-0.310;2023-10-13T04:01:23;18.70;62.70
57566;DHT22;63999;43.882;-0.310;2023-10-13T04:04:13;18.70;62.60
57566;DHT22;63999;43.882;-0.310;2023-10-13T04:06:55;18.60;62.50
57566;DHT22;63999;43.882;-0.310;2023-10-13T04:09:39;18.60;62.40
57566;DHT22;63999;43.882;-0.310;2023-10-13T04:12:08;18.60;62.50
57566;DHT22;63999;43.882;-0.310;2023-10-13T04:14:41;18.60;62.50
57566;DHT22;63999;43.882;-0.310;2023-10-13T04:17:26;18.60;62.50
57566;DHT22;63999;43.882;-0.310;2023-10-13T04:19:57;18.60;62.40
57566;DHT22;63999;43.882;-0.310;2023-10-13T04:22:44;18.50;62.50
57566;DHT22;63999;43.882;-0.310;2023-10-13T04:25:21;18.50;62.40
57566;DHT22;63999;43.882;-0.310;2023-10-13T04:28:10;18.50;62.30
57566;DHT22;63999;43.882;-0.310;2023-10-13T04:30:43;18.40;62.40
57566;DHT22;63999;43.882;-0.310;2023-10-13T04:33:27;18.40;62.40
57566;DHT22;63999;43.882;-0.310;2023-10-13T04:36:13;18.40;62.50
57566;DHT22;63999;43.882;-0.310;2023-10-13T04:38:58;18.40;62.50
57566;DHT22;63999;43.882;-0.310;2023-10-13T04:41:39;18.40;62.50
57566;DHT22;63999;43.882;-0.310;2023-10-13T04:44:10;18.40;62.50
57566;DHT22;63999;43.882;-0.310;2023-10-13T04:46:54;18.40;62.40
57566;DHT22;63999;43.882;-0.310;2023-10-13T04:49:44;18.40;62.60
57566;DHT22;63999;43.882;-0.310;2023-10-13T04:52:12;18.30;62.40
57566;DHT22;63999;43.882;-0.310;2023-10-13T04:54:44;18.30;62.60
57566;DHT22;63999;43.882;-0.310;2023-10-13T04:57:18;18.30;62.50
57566;DHT22;63999;43.882;-0.310;2023-10-13T05:00:04;18.30;62.40
57566;DHT22;63999;43.882;-0.310;2023-10-13T05:02:45;18.30;62.30
57566;DHT22;63999;43.882;-0.310;2023-10-13T05:05:26;18.30;62.70
57566;DHT22;63999;43.882;-0.310;2023-10-13T05:07:55;18.40;62.70
57566;DHT22;63999;43.882;-0.310;2023-10-13T05:10:39;18.40;62.60
57566;DHT22;63999;43.882;-0.310;2023-10-13T05:13:23;18.40;62.60
57566;DHT22;63999;43.882;-0.310;2023-10-13T05:16:07;18.40;62.60
57566;DHT22;63999;43.882;-0.310;2023-10-13T05:18:51;18.40;62.60
57566;DHT22;63999;43.882;-0.310;2023-10-13T05:21:35;18.30;62.50
57566;DHT22;63999;43.882;-0.310;2023-10-13T05:24:19;18.30;62.60
57566;DHT22;63999;43.882;-0.310;2023-10-13T05:27:03;18.40;63.60
57566;DHT22;63999;43.882;-0.310;2023-10-13T05:29:48;18.50;62.80
57566;DHT22;63999;43.882;-0.310;2023-10-13T05:32:33;18.40;62.40
57566;DHT22;63999;43.882;-0.310;2023-10-13T05:35:19;18.30;62.50
57566;DHT22;63999;43.882;-0.310;2023-10-13T05:38:03;18.30;62.50
57566;DHT22;63999;43.882;-0.310;2023-10-13T05:41:01;18.20;62.60
57566;DHT22;63999;43.882;-0.310;2023-10-13T05:43:45;18.10;62.80
57566;DHT22;63999;43.882;-0.310;2023-10-13T05:46:29;18.10;62.80
57566;DHT22;63999;43.882;-0.310;2023-10-13T05:49:05;18.10;62.70
57566;DHT22;63999;43.882;-0.310;2023-10-13T05:51:32;18.10;62.70
57566;DHT22;63999;43.882;-0.310;2023-10-13T05:54:02;18.10;62.70
57566;DHT22;63999;43.882;-0.310;2023-10-13T05:56:48;18.00;62.80
57566;DHT22;63999;43.882;-0.310;2023-10-13T05:59:35;18.00;62.80
57566;DHT22;63999;43.882;-0.310;2023-10-13T06:02:21;18.00;62.90
57566;DHT22;63999;43.882;-0.310;2023-10-13T06:05:07;18.00;62.90
57566;DHT22;63999;43.882;-0.310;2023-10-13T06:07:52;17.90;63.00
57566;DHT22;63999;43.882;-0.310;2023-10-13T06:10:37;18.00;63.00
57566;DHT22;63999;43.882;-0.310;2023-10-13T06:13:22;18.00;63.00
57566;DHT22;63999;43.882;-0.310;2023-10-13T06:16:11;17.90;62.90
57566;DHT22;63999;43.882;-0.310;2023-10-13T06:18:55;17.80;63.00
57566;DHT22;63999;43.882;-0.310;2023-10-13T06:21:40;17.80;63.00
57566;DHT22;63999;43.882;-0.310;2023-10-13T06:24:24;17.80;63.10
57566;DHT22;63999;43.882;-0.310;2023-10-13T06:27:09;17.80;63.10
57566;DHT22;63999;43.882;-0.310;2023-10-13T06:29:53;17.80;63.20
57566;DHT22;63999;43.882;-0.310;2023-10-13T06:32:19;17.70;63.10
57566;DHT22;63999;43.882;-0.310;2023-10-13T06:34:45;17.70;63.20
57566;DHT22;63999;43.882;-0.310;2023-10-13T06:37:11;17.60;63.20
57566;DHT22;63999;43.882;-0.310;2023-10-13T06:39:59;17.60;63.30
57566;DHT22;63999;43.882;-0.310;2023-10-13T06:42:31;17.60;63.30
57566;DHT22;63999;43.882;-0.310;2023-10-13T06:45:00;17.60;63.40
57566;DHT22;63999;43.882;-0.310;2023-10-13T06:47:37;17.60;63.40
57566;DHT22;63999;43.882;-0.310;2023-10-13T06:50:09;17.60;63.40
57566;DHT22;63999;43.882;-0.310;2023-10-13T06:52:48;17.60;63.50
57566;DHT22;63999;43.882;-0.310;2023-10-13T06:55:14;17.60;63.50
57566;DHT22;63999;43.882;-0.310;2023-10-13T06:57:46;17.60;63.60
57566;DHT22;63999;43.882;-0.310;2023-10-13T07:00:12;17.50;63.70
57566;DHT22;63999;43.882;-0.310;2023-10-13T07:02:57;17.50;63.80
57566;DHT22;63999;43.882;-0.310;2023-10-13T07:05:39;17.50;63.90
57566;DHT22;63999;43.882;-0.310;2023-10-13T07:08:06;17.60;63.80
57566;DHT22;63999;43.882;-0.310;2023-10-13T07:10:32;17.60;63.80
57566;DHT22;63999;43.882;-0.310;2023-10-13T07:13:11;17.60;63.90
57566;DHT22;63999;43.882;-0.310;2023-10-13T07:15:39;17.60;64.20
57566;DHT22;63999;43.882;-0.310;2023-10-13T07:18:14;17.80;63.90
57566;DHT22;63999;43.882;-0.310;2023-10-13T07:20:42;17.80;63.80
57566;DHT22;63999;43.882;-0.310;2023-10-13T07:23:13;17.80;63.90
57566;DHT22;63999;43.882;-0.310;2023-10-13T07:25:56;17.80;63.90
57566;DHT22;63999;43.882;-0.310;2023-10-13T07:28:31;17.80;63.90
57566;DHT22;63999;43.882;-0.310;2023-10-13T07:31:04;17.80;63.90
57566;DHT22;63999;43.882;-0.310;2023-10-13T07:33:30;17.80;63.90
57566;DHT22;63999;43.882;-0.310;2023-10-13T07:36:04;17.80;64.10
57566;DHT22;63999;43.882;-0.310;2023-10-13T07:38:45;17.80;64.10
57566;DHT22;63999;43.882;-0.310;2023-10-13T07:41:17;17.90;64.20
57566;DHT22;63999;43.882;-0.310;2023-10-13T07:43:47;18.00;64.30
57566;DHT22;63999;43.882;-0.310;2023-10-13T07:46:14;18.00;64.00
57566;DHT22;63999;43.882;-0.310;2023-10-13T07:48:40;18.10;64.10
57566;DHT22;63999;43.882;-0.310;2023-10-13T07:51:08;18.10;64.00
57566;DHT22;63999;43.882;-0.310;2023-10-13T07:53:41;18.20;63.90
57566;DHT22;63999;43.882;-0.310;2023-10-13T07:56:09;18.20;63.90
57566;DHT22;63999;43.882;-0.310;2023-10-13T07:58:39;18.20;64.00
57566;DHT22;63999;43.882;-0.310;2023-10-13T08:01:20;18.20;64.00
57566;DHT22;63999;43.882;-0.310;2023-10-13T08:03:47;18.30;64.00
57566;DHT22;63999;43.882;-0.310;2023-10-13T08:06:14;18.30;64.00
57566;DHT22;63999;43.882;-0.310;2023-10-13T08:08:40;18.30;63.90
57566;DHT22;63999;43.882;-0.310;2023-10-13T08:11:10;18.40;64.00
57566;DHT22;63999;43.882;-0.310;2023-10-13T08:13:51;18.40;64.40
57566;DHT22;63999;43.882;-0.310;2023-10-13T08:16:22;18.50;64.10
57566;DHT22;63999;43.882;-0.310;2023-10-13T08:18:52;18.50;64.20
57566;DHT22;63999;43.882;-0.310;2023-10-13T08:21:21;18.60;64.30
57566;DHT22;63999;43.882;-0.310;2023-10-13T08:23:50;18.60;64.40
57566;DHT22;63999;43.882;-0.310;2023-10-13T08:26:20;18.70;64.40
57566;DHT22;63999;43.882;-0.310;2023-10-13T08:29:04;18.80;64.40
57566;DHT22;63999;43.882;-0.310;2023-10-13T08:31:49;18.90;64.70
57566;DHT22;63999;43.882;-0.310;2023-10-13T08:34:47;19.00;64.50
57566;DHT22;63999;43.882;-0.310;2023-10-13T08:37:13;19.00;64.50
57566;DHT22;63999;43.882;-0.310;2023-10-13T08:39:45;19.10;64.50
57566;DHT22;63999;43.882;-0.310;2023-10-13T08:42:31;19.20;64.60
57566;DHT22;63999;43.882;-0.310;2023-10-13T08:45:12;19.30;64.50
57566;DHT22;63999;43.882;-0.310;2023-10-13T08:47:55;19.30;64.70
57566;DHT22;63999;43.882;-0.310;2023-10-13T08:50:35;19.40;65.00
57566;DHT22;63999;43.882;-0.310;2023-10-13T08:53:24;19.50;65.00
57566;DHT22;63999;43.882;-0.310;2023-10-13T08:56:05;19.50;64.80
57566;DHT22;63999;43.882;-0.310;2023-10-13T08:58:47;19.60;65.00
57566;DHT22;63999;43.882;-0.310;2023-10-13T09:01:19;19.70;65.00
57566;DHT22;63999;43.882;-0.310;2023-10-13T09:04:05;19.70;65.00
57566;DHT22;63999;43.882;-0.310;2023-10-13T09:06:53;19.70;65.00
57566;DHT22;63999;43.882;-0.310;2023-10-13T09:09:29;19.80;65.00
57566;DHT22;63999;43.882;-0.310;2023-10-13T09:12:14;19.90;65.20
57566;DHT22;63999;43.882;-0.310;2023-10-13T09:14:41;19.90;65.30
57566;DHT22;63999;43.882;-0.310;2023-10-13T09:17:11;20.00;65.30
57566;DHT22;63999;43.882;-0.310;2023-10-13T09:19:47;20.00;65.30
57566;DHT22;63999;43.882;-0.310;2023-10-13T09:22:23;20.10;65.70
57566;DHT22;63999;43.882;-0.310;2023-10-13T09:25:02;20.20;65.70
57566;DHT22;63999;43.882;-0.310;2023-10-13T09:27:32;20.30;65.90
57566;DHT22;63999;43.882;-0.310;2023-10-13T09:30:03;20.30;65.60
57566;DHT22;63999;43.882;-0.310;2023-10-13T09:32:36;20.30;65.90
57566;DHT22;63999;43.882;-0.310;2023-10-13T09:35:18;20.40;65.60
57566;DHT22;63999;43.882;-0.310;2023-10-13T09:37:45;20.50;65.70
57566;DHT22;63999;43.882;-0.310;2023-10-13T09:40:15;20.50;65.60
57566;DHT22;63999;43.882;-0.310;2023-10-13T09:43:03;20.50;65.70
57566;DHT22;63999;43.882;-0.310;2023-10-13T09:45:40;20.50;65.90
57566;DHT22;63999;43.882;-0.310;2023-10-13T09:48:12;20.50;66.00
57566;DHT22;63999;43.882;-0.310;2023-10-13T09:50:48;20.50;65.90
57566;DHT22;63999;43.882;-0.310;2023-10-13T09:53:17;20.50;65.90
57566;DHT22;63999;43.882;-0.310;2023-10-13T09:55:48;20.60;66.20
57566;DHT22;63999;43.882;-0.310;2023-10-13T09:58:17;20.70;66.30
57566;DHT22;63999;43.882;-0.310;2023-10-13T10:00:51;20.80;66.10
57566;DHT22;63999;43.882;-0.310;2023-10-13T10:03:31;20.80;66.10
57566;DHT22;63999;43.882;-0.310;2023-10-13T10:06:01;20.80;66.10
57566;DHT22;63999;43.882;-0.310;2023-10-13T10:08:32;20.80;66.10
57566;DHT22;63999;43.882;-0.310;2023-10-13T10:11:28;20.80;66.10
57566;DHT22;63999;43.882;-0.310;2023-10-13T10:14:36;20.80;66.30
57566;DHT22;63999;43.882;-0.310;2023-10-13T10:17:08;20.80;66.20
57566;DHT22;63999;43.882;-0.310;2023-10-13T10:19:46;20.80;66.20
57566;DHT22;63999;43.882;-0.310;2023-10-13T10:22:12;20.90;66.50
57566;DHT22;63999;43.882;-0.310;2023-10-13T10:24:44;20.90;66.20
57566;DHT22;63999;43.882;-0.310;2023-10-13T10:27:12;20.90;66.30
57566;DHT22;63999;43.882;-0.310;2023-10-13T10:29:53;20.90;66.20
57566;DHT22;63999;43.882;-0.310;2023-10-13T10:32:19;21.00;66.40
57566;DHT22;63999;43.882;-0.310;2023-10-13T10:34:45;20.90;66.40
57566;DHT22;63999;43.882;-0.310;2023-10-13T10:37:11;21.00;66.40
57566;DHT22;63999;43.882;-0.310;2023-10-13T10:39:38;21.00;66.50
57566;DHT22;63999;43.882;-0.310;2023-10-13T10:42:15;20.90;66.20
57566;DHT22;63999;43.882;-0.310;2023-10-13T10:44:42;20.90;66.40
57566;DHT22;63999;43.882;-0.310;2023-10-13T10:47:16;20.90;66.50
57566;DHT22;63999;43.882;-0.310;2023-10-13T10:50:00;20.90;66.30
57566;DHT22;63999;43.882;-0.310;2023-10-13T10:52:34;20.90;66.20
57566;DHT22;63999;43.882;-0.310;2023-10-13T10:55:03;20.90;65.80
57566;DHT22;63999;43.882;-0.310;2023-10-13T10:57:33;20.80;66.20
57566;DHT22;63999;43.882;-0.310;2023-10-13T11:00:04;20.80;66.10
57566;DHT22;63999;43.882;-0.310;2023-10-13T11:02:40;20.80;66.60
57566;DHT22;63999;43.882;-0.310;2023-10-13T11:05:07;20.90;66.40
57566;DHT22;63999;43.882;-0.310;2023-10-13T11:07:36;20.90;66.20
57566;DHT22;63999;43.882;-0.310;2023-10-13T11:10:11;20.90;66.30
57566;DHT22;63999;43.882;-0.310;2023-10-13T11:12:58;21.00;66.70
57566;DHT22;63999;43.882;-0.310;2023-10-13T11:15:47;21.00;66.80
57566;DHT22;63999;43.882;-0.310;2023-10-13T11:18:13;21.00;66.70
57566;DHT22;63999;43.882;-0.310;2023-10-13T11:20:49;21.00;66.40
57566;DHT22;63999;43.882;-0.310;2023-10-13T11:23:21;21.00;66.00
57566;DHT22;63999;43.882;-0.310;2023-10-13T11:25:57;21.10;67.20
57566;DHT22;63999;43.882;-0.310;2023-10-13T11:28:26;21.10;67.10
57566;DHT22;63999;43.882;-0.310;2023-10-13T11:30:55;21.10;66.60
57566;DHT22;63999;43.882;-0.310;2023-10-13T11:33:25;21.10;66.90
57566;DHT22;63999;43.882;-0.310;2023-10-13T11:35:55;21.20;67.20
57566;DHT22;63999;43.882;-0.310;2023-10-13T11:38:32;21.20;67.40
57566;DHT22;63999;43.882;-0.310;2023-10-13T11:41:09;21.20;67.00
57566;DHT22;63999;43.882;-0.310;2023-10-13T11:43:43;21.20;66.70
57566;DHT22;63999;43.882;-0.310;2023-10-13T11:46:12;21.20;67.50
57566;DHT22;63999;43.882;-0.310;2023-10-13T11:48:43;21.30;66.90
57566;DHT22;63999;43.882;-0.310;2023-10-13T11:51:11;21.30;67.30
57566;DHT22;63999;43.882;-0.310;2023-10-13T11:53:44;21.30;66.70
57566;DHT22;63999;43.882;-0.310;2023-10-13T11:56:20;21.30;66.70
57566;DHT22;63999;43.882;-0.310;2023-10-13T11:58:48;21.30;68.00
57566;DHT22;63999;43.882;-0.310;2023-10-13T12:01:15;21.40;68.00
57566;DHT22;63999;43.882;-0.310;2023-10-13T12:03:41;21.50;67.90
57566;DHT22;63999;43.882;-0.310;2023-10-13T12:06:26;21.50;67.80
57566;DHT22;63999;43.882;-0.310;2023-10-13T12:09:02;21.70;67.60
57566;DHT22;63999;43.882;-0.310;2023-10-13T12:11:49;21.60;67.40
57566;DHT22;63999;43.882;-0.310;2023-10-13T12:14:20;21.70;67.40
57566;DHT22;63999;43.882;-0.310;2023-10-13T12:17:21;21.60;67.30
57566;DHT22;63999;43.882;-0.310;2023-10-13T12:20:07;21.70;67.60
57566;DHT22;63999;43.882;-0.310;2023-10-13T12:22:39;21.70;67.60
57566;DHT22;63999;43.882;-0.310;2023-10-13T12:25:06;21.70;68.00
57566;DHT22;63999;43.882;-0.310;2023-10-13T12:27:50;21.70;67.60
57566;DHT22;63999;43.882;-0.310;2023-10-13T12:30:21;21.70;67.40
57566;DHT22;63999;43.882;-0.310;2023-10-13T12:33:14;21.90;67.80
57566;DHT22;63999;43.882;-0.310;2023-10-13T12:35:50;22.00;67.10
57566;DHT22;63999;43.882;-0.310;2023-10-13T12:38:48;22.00;66.70
57566;DHT22;63999;43.882;-0.310;2023-10-13T12:41:20;21.90;66.40
57566;DHT22;63999;43.882;-0.310;2023-10-13T12:44:06;21.80;67.10
57566;DHT22;63999;43.882;-0.310;2023-10-13T12:46:51;21.70;67.30
57566;DHT22;63999;43.882;-0.310;2023-10-13T12:49:36;21.80;67.10
57566;DHT22;63999;43.882;-0.310;2023-10-13T12:52:08;22.00;67.20
57566;DHT22;63999;43.882;-0.310;2023-10-13T12:54:51;22.00;66.90
57566;DHT22;63999;43.882;-0.310;2023-10-13T12:57:26;22.10;66.80
57566;DHT22;63999;43.882;-0.310;2023-10-13T12:59:52;22.10;66.90
57566;DHT22;63999;43.882;-0.310;2023-10-13T13:02:23;22.40;65.70
57566;DHT22;63999;43.882;-0.310;2023-10-13T13:04:51;22.50;65.50
57566;DHT22;63999;43.882;-0.310;2023-10-13T13:07:20;22.50;65.70
57566;DHT22;63999;43.882;-0.310;2023-10-13T13:09:46;22.50;65.10
57566;DHT22;63999;43.882;-0.310;2023-10-13T13:12:11;22.40;65.40
57566;DHT22;63999;43.882;-0.310;2023-10-13T13:14:40;22.30;65.50
57566;DHT22;63999;43.882;-0.310;2023-10-13T13:17:12;22.20;65.00
57566;DHT22;63999;43.882;-0.310;2023-10-13T13:19:38;22.20;65.80
57566;DHT22;63999;43.882;-0.310;2023-10-13T13:22:08;22.20;66.10
57566;DHT22;63999;43.882;-0.310;2023-10-13T13:24:41;22.50;65.70
57566;DHT22;63999;43.882;-0.310;2023-10-13T13:27:12;22.50;65.00
57566;DHT22;63999;43.882;-0.310;2023-10-13T13:29:47;22.50;65.30
57566;DHT22;63999;43.882;-0.310;2023-10-13T13:32:13;22.50;65.60
57566;DHT22;63999;43.882;-0.310;2023-10-13T13:34:50;22.50;65.90
57566;DHT22;63999;43.882;-0.310;2023-10-13T13:37:33;22.50;65.40
57566;DHT22;63999;43.882;-0.310;2023-10-13T13:39:59;22.40;65.40
57566;DHT22;63999;43.882;-0.310;2023-10-13T13:42:44;22.30;65.00
57566;DHT22;63999;43.882;-0.310;2023-10-13T13:45:14;22.50;65.70
57566;DHT22;63999;43.882;-0.310;2023-10-13T13:48:00;22.40;64.80
57566;DHT22;63999;43.882;-0.310;2023-10-13T13:50:33;22.40;65.00
57566;DHT22;63999;43.882;-0.310;2023-10-13T13:53:04;22.30;65.30
57566;DHT22;63999;43.882;-0.310;2023-10-13T13:55:34;22.20;65.10
57566;DHT22;63999;43.882;-0.310;2023-10-13T13:58:00;22.20;65.60
57566;DHT22;63999;43.882;-0.310;2023-10-13T14:00:26;22.40;66.10
57566;DHT22;63999;43.882;-0.310;2023-10-13T14:03:08;22.40;65.10
57566;DHT22;63999;43.882;-0.310;2023-10-13T14:05:42;22.30;64.70
57566;DHT22;63999;43.882;-0.310;2023-10-13T14:08:07;22.20;64.60
57566;DHT22;63999;43.882;-0.310;2023-10-13T14:10:38;22.40;66.70
57566;DHT22;63999;43.882;-0.310;2023-10-13T14:13:27;22.40;64.90
57566;DHT22;63999;43.882;-0.310;2023-10-13T14:16:12;22.30;65.50
57566;DHT22;63999;43.882;-0.310;2023-10-13T14:18:51;22.60;65.10
57566;DHT22;63999;43.882;-0.310;2023-10-13T14:21:18;22.50;64.60
57566;DHT22;63999;43.882;-0.310;2023-10-13T14:23:50;22.50;64.70
57566;DHT22;63999;43.882;-0.310;2023-10-13T14:26:17;22.30;64.70
57566;DHT22;63999;43.882;-0.310;2023-10-13T14:28:49;22.30;65.10
57566;DHT22;63999;43.882;-0.310;2023-10-13T14:31:29;22.40;64.80
57566;DHT22;63999;43.882;-0.310;2023-10-13T14:33:55;22.50;64.50
57566;DHT22;63999;43.882;-0.310;2023-10-13T14:36:22;22.50;64.90
57566;DHT22;63999;43.882;-0.310;2023-10-13T14:38:48;22.50;64.90
57566;DHT22;63999;43.882;-0.310;2023-10-13T14:41:17;22.50;65.80
57566;DHT22;63999;43.882;-0.310;2023-10-13T14:43:46;22.60;64.80
57566;DHT22;63999;43.882;-0.310;2023-10-13T14:46:18;22.70;64.90
57566;DHT22;63999;43.882;-0.310;2023-10-13T14:48:51;22.70;65.10
57566;DHT22;63999;43.882;-0.310;2023-10-13T14:51:17;22.70;64.80
57566;DHT22;63999;43.882;-0.310;2023-10-13T14:53:44;22.70;65.10
57566;DHT22;63999;43.882;-0.310;2023-10-13T14:56:11;22.60;64.40
57566;DHT22;63999;43.882;-0.310;2023-10-13T14:58:37;22.60;64.70
57566;DHT22;63999;43.882;-0.310;2023-10-13T15:01:33;22.60;65.20
57566;DHT22;63999;43.882;-0.310;2023-10-13T15:04:00;22.60;64.90
57566;DHT22;63999;43.882;-0.310;2023-10-13T15:06:27;22.60;65.00
57566;DHT22;63999;43.882;-0.310;2023-10-13T15:08:57;22.80;65.80
57566;DHT22;63999;43.882;-0.310;2023-10-13T15:11:24;22.80;65.00
57566;DHT22;63999;43.882;-0.310;2023-10-13T15:13:56;22.80;64.80
57566;DHT22;63999;43.882;-0.310;2023-10-13T15:16:24;22.80;65.20
57566;DHT22;63999;43.882;-0.310;2023-10-13T15:18:51;22.80;64.80
57566;DHT22;63999;43.882;-0.310;2023-10-13T15:21:27;22.80;64.70
57566;DHT22;63999;43.882;-0.310;2023-10-13T15:24:04;22.80;65.10
57566;DHT22;63999;43.882;-0.310;2023-10-13T15:26:39;22.80;64.90
57566;DHT22;63999;43.882;-0.310;2023-10-13T15:29:07;22.80;65.10
57566;DHT22;63999;43.882;-0.310;2023-10-13T15:31:38;22.80;65.20
57566;DHT22;63999;43.882;-0.310;2023-10-13T15:34:11;22.80;64.50
57566;DHT22;63999;43.882;-0.310;2023-10-13T15:36:42;22.80;64.80
57566;DHT22;63999;43.882;-0.310;2023-10-13T15:39:09;22.70;64.50
57566;DHT22;63999;43.882;-0.310;2023-10-13T15:41:36;22.70;64.40
57566;DHT22;63999;43.882;-0.310;2023-10-13T15:44:05;22.70;64.20
57566;DHT22;63999;43.882;-0.310;2023-10-13T15:46:36;22.60;64.50
57566;DHT22;63999;43.882;-0.310;2023-10-13T15:49:02;22.70;64.50
57566;DHT22;63999;43.882;-0.310;2023-10-13T15:51:37;22.70;64.60
57566;DHT22;63999;43.882;-0.310;2023-10-13T15:54:04;22.80;64.60
57566;DHT22;63999;43.882;-0.310;2023-10-13T15:56:30;22.80;64.80
57566;DHT22;63999;43.882;-0.310;2023-10-13T15:58:59;22.80;64.60
57566;DHT22;63999;43.882;-0.310;2023-10-13T16:01:27;22.80;65.10